createdAt,value
2019-03-11T00:00:26.560Z,81.21
2019-03-11T00:03:00.921Z,81.04
2019-03-11T00:05:33.713Z,81.07
2019-03-11T00:08:06.930Z,80.80
2019-03-11T00:10:39.706Z,80.79
2019-03-11T00:13:12.529Z,80.91
2019-03-11T00:15:45.297Z,80.86
2019-03-11T00:18:18.143Z,80.66
2019-03-11T00:20:50.931Z,80.53
2019-03-11T00:23:23.722Z,80.52
2019-03-11T00:25:56.622Z,80.43
2019-03-11T00:28:29.483Z,80.55
2019-03-11T00:31:02.250Z,80.46
2019-03-11T00:33:35.139Z,80.43
2019-03-11T00:36:07.982Z,80.43
2019-03-11T00:38:40.771Z,80.46
2019-03-11T00:41:13.645Z,80.20
2019-03-11T00:43:46.434Z,80.15
2019-03-11T00:46:19.146Z,80.06
2019-03-11T00:48:51.896Z,79.95
2019-03-11T00:51:24.596Z,80.21
2019-03-11T00:53:57.314Z,80.03
2019-03-11T00:56:30.011Z,79.93
2019-03-11T00:59:02.825Z,79.74
2019-03-11T01:01:35.670Z,79.83
2019-03-11T01:04:08.466Z,79.93
2019-03-11T01:06:41.161Z,79.76
2019-03-11T01:09:14.165Z,79.80
2019-03-11T01:11:46.929Z,79.93
2019-03-11T01:14:19.708Z,79.98
2019-03-11T01:16:52.444Z,79.94
2019-03-11T01:19:25.187Z,79.90
2019-03-11T01:21:57.878Z,80.05
2019-03-11T01:24:30.647Z,79.73
2019-03-11T01:27:03.383Z,79.90
2019-03-11T01:29:36.128Z,79.79
2019-03-11T01:32:08.896Z,79.85
2019-03-11T01:34:43.760Z,79.71
2019-03-11T01:37:16.496Z,79.50
2019-03-11T01:39:49.355Z,79.81
2019-03-11T01:42:22.060Z,79.57
2019-03-11T01:44:54.824Z,79.50
2019-03-11T01:47:27.518Z,79.28
2019-03-11T01:50:00.365Z,78.90
2019-03-11T01:52:33.800Z,78.91
2019-03-11T01:55:07.493Z,78.85
2019-03-11T01:57:40.223Z,78.73
2019-03-11T02:00:14.838Z,78.74
2019-03-11T02:02:47.806Z,78.83
2019-03-11T02:05:20.552Z,78.54
2019-03-11T02:07:53.256Z,78.53
2019-03-11T02:10:25.960Z,78.40
2019-03-11T02:12:58.638Z,78.45
2019-03-11T02:15:31.380Z,78.50
2019-03-11T02:18:04.095Z,78.45
2019-03-11T02:20:36.796Z,78.30
2019-03-11T02:23:09.483Z,78.21
2019-03-11T02:25:42.170Z,78.13
2019-03-11T02:28:14.917Z,78.11
2019-03-11T02:30:47.644Z,77.95
2019-03-11T02:33:20.428Z,77.83
2019-03-11T02:35:55.015Z,77.96
2019-03-11T02:38:27.941Z,77.67
2019-03-11T02:41:00.677Z,78.00
2019-03-11T02:43:33.419Z,77.74
2019-03-11T02:46:06.267Z,77.65
2019-03-11T02:48:39.016Z,77.53
2019-03-11T02:51:11.805Z,77.71
2019-03-11T02:53:44.608Z,77.58
2019-03-11T02:56:18.435Z,77.72
2019-03-11T02:58:51.150Z,77.93
2019-03-11T03:01:49.871Z,77.98
2019-03-11T03:04:26.709Z,77.90
2019-03-11T03:06:59.420Z,78.21
2019-03-11T03:09:32.453Z,78.37
2019-03-11T03:12:05.164Z,78.61
2019-03-11T03:14:37.997Z,78.63
2019-03-11T03:17:10.774Z,78.54
2019-03-11T03:19:43.502Z,78.45
2019-03-11T03:22:16.395Z,77.87
2019-03-11T03:24:49.200Z,78.32
2019-03-11T03:27:21.976Z,78.51
2019-03-11T03:29:54.694Z,78.49
2019-03-11T03:32:27.365Z,78.52
2019-03-11T03:35:00.314Z,78.58
2019-03-11T03:37:33.550Z,78.61
2019-03-11T03:40:07.133Z,78.65
2019-03-11T03:42:39.910Z,78.66
2019-03-11T03:45:40.168Z,78.74
2019-03-11T03:48:15.255Z,78.97
2019-03-11T03:50:48.136Z,78.99
2019-03-11T03:53:20.922Z,79.18
2019-03-11T03:55:53.670Z,79.57
2019-03-11T03:58:26.457Z,79.60
2019-03-11T04:00:59.232Z,79.78
2019-03-11T04:03:31.986Z,79.88
2019-03-11T04:06:04.733Z,79.97
2019-03-11T04:08:37.432Z,80.02
2019-03-11T04:11:10.168Z,79.72
2019-03-11T04:13:42.876Z,79.66
2019-03-11T04:16:15.675Z,79.53
2019-03-11T04:18:56.563Z,79.44
2019-03-11T04:21:29.311Z,79.26
2019-03-11T04:24:02.091Z,78.83
2019-03-11T04:26:34.851Z,78.80
2019-03-11T04:29:07.571Z,78.41
2019-03-11T04:31:40.355Z,77.40
2019-03-11T04:34:13.072Z,77.46
2019-03-11T04:36:45.992Z,76.93
2019-03-11T04:39:18.751Z,77.27
2019-03-11T04:41:51.570Z,77.30
2019-03-11T04:44:24.314Z,77.48
2019-03-11T04:46:57.121Z,76.94
2019-03-11T04:49:29.836Z,77.02
2019-03-11T04:52:02.660Z,76.93
2019-03-11T04:54:35.410Z,76.84
2019-03-11T04:57:09.143Z,76.82
2019-03-11T04:59:41.924Z,76.83
2019-03-11T05:02:14.774Z,77.20
2019-03-11T05:04:47.552Z,76.95
2019-03-11T05:07:20.415Z,76.95
2019-03-11T05:09:53.208Z,77.18
2019-03-11T05:12:26.091Z,77.17
2019-03-11T05:14:58.840Z,77.20
2019-03-11T05:17:31.725Z,76.84
2019-03-11T05:20:05.177Z,76.86
2019-03-11T05:22:37.978Z,77.14
2019-03-11T05:25:11.296Z,76.73
2019-03-11T05:27:44.068Z,76.39
2019-03-11T05:30:17.816Z,76.72
2019-03-11T05:32:50.739Z,76.44
2019-03-11T05:35:23.553Z,76.25
2019-03-11T05:37:57.504Z,77.88
2019-03-11T05:40:30.282Z,76.07
2019-03-11T05:43:03.040Z,74.90
2019-03-11T05:45:35.735Z,74.82
2019-03-11T05:48:08.536Z,74.58
2019-03-11T05:50:41.275Z,74.66
2019-03-11T05:53:14.024Z,74.02
2019-03-11T05:55:46.844Z,74.20
2019-03-11T05:58:19.721Z,73.60
2019-03-11T06:00:53.371Z,73.00
2019-03-11T06:03:26.356Z,72.97
2019-03-11T06:05:59.184Z,73.87
2019-03-11T06:08:31.890Z,74.18
2019-03-11T06:11:04.699Z,74.87
2019-03-11T06:13:37.574Z,74.80
2019-03-11T06:16:10.368Z,74.81
2019-03-11T06:18:45.976Z,75.31
2019-03-11T06:21:29.989Z,75.64
2019-03-11T06:24:02.693Z,75.51
2019-03-11T06:26:36.591Z,75.88
2019-03-11T06:29:09.353Z,76.22
2019-03-11T06:31:42.162Z,76.04
2019-03-11T06:34:15.066Z,76.07
2019-03-11T06:36:47.805Z,76.46
2019-03-11T06:39:20.683Z,76.54
2019-03-11T06:41:53.394Z,76.46
2019-03-11T06:44:26.154Z,76.78
2019-03-11T06:46:58.956Z,76.29
2019-03-11T06:49:31.773Z,76.27
2019-03-11T06:52:05.592Z,75.70
2019-03-11T06:54:38.404Z,75.71
2019-03-11T06:57:12.762Z,75.73
2019-03-11T06:59:45.888Z,75.84
2019-03-11T07:02:18.591Z,75.54
2019-03-11T07:04:51.332Z,75.82
2019-03-11T07:07:25.205Z,76.02
2019-03-11T07:09:58.200Z,75.74
2019-03-11T07:12:30.932Z,75.32
2019-03-11T07:15:04.111Z,76.08
2019-03-11T07:17:37.013Z,76.70
2019-03-11T07:20:11.944Z,76.95
2019-03-11T07:22:44.802Z,77.57
2019-03-11T07:25:17.679Z,77.23
2019-03-11T07:27:50.519Z,77.41
2019-03-11T07:30:27.228Z,77.22
2019-03-11T07:33:00.003Z,76.62
2019-03-11T07:35:32.807Z,76.10
2019-03-11T07:38:05.561Z,75.73
2019-03-11T07:40:38.247Z,74.90
2019-03-11T07:43:11.077Z,74.36
2019-03-11T07:45:43.900Z,73.21
2019-03-11T07:48:16.767Z,71.57
2019-03-11T07:50:49.568Z,71.08
2019-03-11T07:53:22.428Z,71.44
2019-03-11T07:55:55.307Z,72.35
2019-03-11T07:58:28.171Z,71.35
2019-03-11T08:01:00.914Z,71.90
2019-03-11T08:03:34.709Z,72.33
2019-03-11T08:06:17.829Z,72.55
2019-03-11T08:08:42.132Z,72.92
2019-03-11T08:11:15.322Z,74.62
2019-03-11T08:13:48.357Z,75.16
2019-03-11T08:16:21.131Z,75.78
2019-03-11T08:18:54.022Z,76.80
2019-03-11T08:21:27.276Z,76.91
2019-03-11T08:24:00.088Z,77.43
2019-03-11T08:26:33.008Z,77.17
2019-03-11T08:29:05.720Z,77.70
2019-03-11T08:31:38.495Z,78.04
2019-03-11T08:34:11.248Z,78.18
2019-03-11T08:36:43.958Z,77.45
2019-03-11T08:39:16.827Z,77.61
2019-03-11T08:41:49.814Z,78.41
2019-03-11T08:44:22.560Z,79.16
2019-03-11T08:46:55.377Z,78.88
2019-03-11T08:49:28.238Z,78.66
2019-03-11T08:52:01.005Z,79.08
2019-03-11T08:54:34.837Z,79.14
2019-03-11T08:57:07.619Z,79.68
2019-03-11T08:59:40.443Z,79.45
2019-03-11T09:02:13.162Z,79.87
2019-03-11T09:04:45.992Z,80.00
2019-03-11T09:07:19.805Z,80.06
2019-03-11T09:09:52.686Z,79.64
2019-03-11T09:12:25.372Z,79.58
2019-03-11T09:14:58.322Z,79.96
2019-03-11T09:17:31.061Z,79.11
2019-03-11T09:20:03.973Z,79.83
2019-03-11T09:22:37.107Z,79.51
2019-03-11T09:25:12.959Z,79.10
2019-03-11T09:27:45.807Z,79.49
2019-03-11T09:30:20.344Z,79.32
2019-03-11T09:32:53.189Z,78.79
2019-03-11T09:35:25.923Z,79.76
2019-03-11T09:37:58.710Z,79.62
2019-03-11T09:40:31.579Z,79.29
2019-03-11T09:43:04.334Z,79.07
2019-03-11T09:45:37.256Z,79.63
2019-03-11T09:48:10.046Z,79.57
2019-03-11T09:50:42.828Z,78.83
2019-03-11T09:53:15.699Z,79.02
2019-03-11T09:55:48.454Z,78.60
2019-03-11T09:58:21.231Z,79.09
2019-03-11T10:00:53.980Z,78.28
2019-03-11T10:03:26.745Z,77.90
2019-03-11T10:05:59.640Z,78.99
2019-03-11T10:08:32.348Z,79.12
2019-03-11T10:11:05.157Z,77.83
2019-03-11T10:13:37.888Z,77.18
2019-03-11T10:16:10.721Z,77.56
2019-03-11T10:18:43.478Z,78.12
2019-03-11T10:21:16.283Z,77.03
2019-03-11T10:23:49.122Z,76.07
2019-03-11T10:26:21.971Z,76.43
2019-03-11T10:28:54.841Z,75.78
2019-03-11T10:31:27.609Z,76.27
2019-03-11T10:34:00.388Z,75.68
2019-03-11T10:36:33.323Z,75.28
2019-03-11T10:39:07.869Z,74.22
2019-03-11T10:41:40.769Z,74.71
2019-03-11T10:44:13.636Z,75.17
2019-03-11T10:46:46.441Z,74.86
2019-03-11T10:49:19.248Z,75.05
2019-03-11T10:51:52.000Z,74.09
2019-03-11T10:54:24.836Z,74.26
2019-03-11T10:56:57.649Z,74.07
2019-03-11T10:59:30.554Z,73.71
2019-03-11T11:02:03.269Z,72.78
2019-03-11T11:04:36.568Z,73.11
2019-03-11T11:07:09.343Z,72.91
2019-03-11T11:09:42.107Z,73.55
2019-03-11T11:12:14.870Z,72.75
2019-03-11T11:14:47.745Z,70.73
2019-03-11T11:17:20.511Z,70.54
2019-03-11T11:20:02.922Z,69.41
2019-03-11T11:22:27.741Z,67.11
2019-03-11T11:25:00.555Z,68.95
2019-03-11T11:27:33.442Z,67.69
2019-03-11T11:30:08.558Z,64.94
2019-03-11T11:32:41.467Z,65.03
2019-03-11T11:35:14.559Z,66.15
2019-03-11T11:37:47.440Z,64.12
2019-03-11T11:40:23.557Z,65.54
2019-03-11T11:42:56.408Z,64.53
2019-03-11T11:45:29.336Z,63.86
2019-03-11T11:48:02.152Z,63.57
2019-03-11T11:50:34.957Z,63.28
2019-03-11T11:53:07.717Z,61.90
2019-03-11T11:55:40.432Z,63.07
2019-03-11T11:58:13.280Z,61.23
2019-03-11T12:00:47.443Z,62.68
2019-03-11T12:03:20.243Z,60.25
2019-03-11T12:05:52.962Z,59.23
2019-03-11T12:08:25.854Z,59.23
2019-03-11T12:10:58.656Z,58.96
2019-03-11T12:13:31.426Z,60.52
2019-03-11T12:16:04.350Z,60.60
2019-03-11T12:18:37.058Z,59.16
2019-03-11T12:21:09.797Z,61.23
2019-03-11T12:23:46.584Z,60.40
2019-03-11T12:26:17.086Z,61.47
2019-03-11T12:28:50.812Z,61.27
2019-03-11T12:31:23.530Z,61.72
2019-03-11T12:33:58.508Z,59.91
2019-03-11T12:36:31.262Z,60.36
2019-03-11T12:39:05.350Z,60.71
2019-03-11T12:41:39.100Z,60.65
2019-03-11T12:44:11.943Z,60.24
2019-03-11T12:46:44.733Z,60.93
2019-03-11T12:49:17.445Z,61.24
2019-03-11T12:51:50.403Z,60.71
2019-03-11T12:54:23.478Z,60.80
2019-03-11T12:56:56.297Z,61.71
2019-03-11T12:59:29.178Z,62.16
2019-03-11T13:02:02.304Z,61.53
2019-03-11T13:04:36.637Z,61.18
2019-03-11T13:07:09.366Z,61.05
2019-03-11T13:09:42.402Z,62.33
2019-03-11T13:12:15.161Z,62.24
2019-03-11T13:14:47.918Z,64.05
2019-03-11T13:17:20.621Z,65.13
2019-03-11T13:19:57.137Z,65.58
2019-03-11T13:22:29.969Z,63.70
2019-03-11T13:25:02.694Z,64.42
2019-03-11T13:27:35.600Z,62.23
2019-03-11T13:30:09.603Z,62.17
2019-03-11T13:32:42.518Z,61.44
2019-03-11T13:35:15.981Z,60.94
2019-03-11T13:37:48.709Z,58.42
2019-03-11T13:40:21.480Z,56.71
2019-03-11T13:42:54.214Z,55.30
2019-03-11T13:45:26.990Z,55.64
2019-03-11T13:47:59.913Z,55.59
2019-03-11T13:50:32.711Z,54.20
2019-03-11T13:53:05.652Z,54.40
2019-03-11T13:55:38.337Z,54.86
2019-03-11T13:58:11.106Z,55.03
2019-03-11T14:00:43.938Z,54.95
2019-03-11T14:03:16.809Z,55.48
2019-03-11T14:05:50.078Z,56.44
2019-03-11T14:08:22.966Z,61.58
2019-03-11T14:10:55.718Z,62.42
2019-03-11T14:13:28.640Z,63.91
2019-03-11T14:16:01.432Z,63.08
2019-03-11T14:18:34.468Z,63.06
2019-03-11T14:21:08.729Z,63.51
2019-03-11T14:23:41.920Z,63.60
2019-03-11T14:26:14.757Z,59.93
2019-03-11T14:28:47.496Z,59.15
2019-03-11T14:31:20.289Z,58.80
2019-03-11T14:33:53.048Z,59.09
2019-03-11T14:36:27.866Z,60.00
2019-03-11T14:39:00.659Z,63.33
2019-03-11T14:41:35.017Z,66.13
2019-03-11T14:44:07.781Z,67.58
2019-03-11T14:46:40.574Z,69.12
2019-03-11T14:49:13.327Z,69.92
2019-03-11T14:51:46.224Z,69.91
2019-03-11T14:54:19.026Z,68.64
2019-03-11T14:56:51.952Z,69.87
2019-03-11T14:59:24.694Z,69.93
2019-03-11T15:01:57.585Z,70.03
2019-03-11T15:04:30.355Z,70.29
2019-03-11T15:07:03.217Z,71.60
2019-03-11T15:09:36.060Z,71.59
2019-03-11T15:12:08.875Z,71.64
2019-03-11T15:14:41.698Z,72.16
2019-03-11T15:17:14.583Z,72.47
2019-03-11T15:19:47.376Z,72.59
2019-03-11T15:22:22.256Z,73.02
2019-03-11T15:24:54.694Z,73.26
2019-03-11T15:27:27.448Z,73.74
2019-03-11T15:30:00.460Z,73.63
2019-03-11T15:32:33.454Z,74.02
2019-03-11T15:35:07.261Z,73.55
2019-03-11T15:37:40.413Z,73.80
2019-03-11T15:40:15.435Z,73.63
2019-03-11T15:42:48.417Z,73.36
2019-03-11T15:45:21.330Z,72.80
2019-03-11T15:47:54.393Z,72.69
2019-03-11T15:50:28.029Z,72.33
2019-03-11T15:53:00.918Z,72.18
2019-03-11T15:55:33.826Z,72.29
2019-03-11T15:58:06.638Z,71.59
2019-03-11T16:00:39.539Z,72.27
2019-03-11T16:03:12.585Z,73.60
2019-03-11T16:05:45.375Z,74.73
2019-03-11T16:08:18.293Z,75.37
2019-03-11T16:10:51.259Z,76.14
2019-03-11T16:13:24.448Z,76.65
2019-03-11T16:15:57.429Z,77.36
2019-03-11T16:18:30.309Z,78.49
2019-03-11T16:21:03.306Z,78.98
2019-03-11T16:23:36.128Z,79.19
2019-03-11T16:26:08.972Z,79.71
2019-03-11T16:28:48.012Z,79.57
2019-03-11T16:31:16.641Z,79.83
2019-03-11T16:33:49.435Z,80.26
2019-03-11T16:36:22.162Z,80.39
2019-03-11T16:38:56.762Z,80.28
2019-03-11T16:41:30.008Z,80.26
2019-03-11T16:44:02.966Z,81.20
2019-03-11T16:46:35.699Z,81.26
2019-03-11T16:49:08.831Z,80.66
2019-03-11T16:51:41.644Z,80.08
2019-03-11T16:54:14.358Z,79.74
2019-03-11T16:56:47.223Z,79.11
2019-03-11T16:59:20.001Z,79.31
2019-03-11T17:01:52.873Z,79.06
2019-03-11T17:04:25.822Z,78.74
2019-03-11T17:06:58.616Z,79.36
2019-03-11T17:09:31.432Z,79.40
2019-03-11T17:12:04.276Z,79.46
2019-03-11T17:14:37.236Z,79.39
2019-03-11T17:17:10.071Z,79.99
2019-03-11T17:19:42.884Z,79.68
2019-03-11T17:22:15.727Z,79.52
2019-03-11T17:24:48.475Z,79.85
2019-03-11T17:27:21.378Z,80.14
2019-03-11T17:29:54.094Z,79.95
2019-03-11T17:32:26.896Z,79.97
2019-03-11T17:34:59.843Z,79.94
2019-03-11T17:37:32.620Z,80.20
2019-03-11T17:40:06.138Z,79.90
2019-03-11T17:42:39.071Z,80.05
2019-03-11T17:45:12.634Z,80.22
2019-03-11T17:47:45.510Z,80.59
2019-03-11T17:50:18.510Z,80.22
2019-03-11T17:52:51.711Z,80.16
2019-03-11T17:55:24.807Z,80.50
2019-03-11T17:57:57.704Z,80.38
2019-03-11T18:00:32.015Z,80.40
2019-03-11T18:03:04.925Z,80.60
2019-03-11T18:05:37.806Z,80.68
2019-03-11T18:08:10.623Z,80.40
2019-03-11T18:10:43.587Z,80.35
2019-03-11T18:13:16.471Z,80.16
2019-03-11T18:15:49.325Z,80.75
2019-03-11T18:18:32.722Z,80.55
2019-03-11T18:20:59.660Z,80.22
2019-03-11T18:23:32.330Z,79.87
2019-03-11T18:26:05.193Z,79.96
2019-03-11T18:28:38.022Z,79.45
2019-03-11T18:31:10.955Z,79.29
2019-03-11T18:33:43.877Z,79.13
2019-03-11T18:36:16.743Z,79.17
2019-03-11T18:38:49.581Z,79.36
2019-03-11T18:41:22.352Z,79.31
2019-03-11T18:43:55.078Z,79.29
2019-03-11T18:46:28.064Z,79.32
2019-03-11T18:49:00.837Z,79.18
2019-03-11T18:51:33.637Z,79.21
2019-03-11T18:54:06.499Z,79.06
2019-03-11T18:56:39.428Z,79.25
2019-03-11T18:59:12.214Z,79.35
2019-03-11T19:01:45.010Z,79.38
2019-03-11T19:04:17.841Z,78.88
2019-03-11T19:06:52.566Z,79.10
2019-03-11T19:09:25.438Z,79.10
2019-03-11T19:11:58.476Z,79.13
2019-03-11T19:14:31.449Z,79.20
2019-03-11T19:17:04.299Z,78.86
2019-03-11T19:19:45.693Z,78.61
2019-03-11T19:22:11.555Z,78.48
2019-03-11T19:24:44.411Z,78.73
2019-03-11T19:27:17.249Z,78.61
2019-03-11T19:29:50.210Z,78.64
2019-03-11T19:32:23.049Z,78.79
2019-03-11T19:34:56.204Z,78.77
2019-03-11T19:37:28.956Z,78.79
2019-03-11T19:40:01.918Z,78.69
2019-03-11T19:42:36.538Z,79.04
2019-03-11T19:45:10.256Z,78.91
2019-03-11T19:47:43.241Z,79.15
2019-03-11T19:50:19.017Z,79.07
2019-03-11T19:52:58.382Z,79.35
2019-03-11T19:55:26.663Z,79.32
2019-03-11T19:57:59.501Z,79.25
2019-03-11T20:00:32.540Z,79.47
2019-03-11T20:03:05.603Z,79.47
2019-03-11T20:05:38.585Z,79.42
2019-03-11T20:08:11.615Z,79.58
2019-03-11T20:10:44.889Z,79.49
2019-03-11T20:13:17.727Z,79.65
2019-03-11T20:15:53.674Z,79.46
2019-03-11T20:18:27.217Z,79.58
2019-03-11T20:20:59.954Z,79.54
2019-03-11T20:23:32.980Z,79.72
2019-03-11T20:26:07.136Z,79.57
2019-03-11T20:28:40.126Z,79.49
2019-03-11T20:31:13.157Z,79.42
2019-03-11T20:33:46.218Z,79.56
2019-03-11T20:36:21.330Z,79.36
2019-03-11T20:38:53.761Z,79.39
2019-03-11T20:41:26.627Z,79.33
2019-03-11T20:43:59.545Z,79.36
2019-03-11T20:46:32.543Z,79.25
2019-03-11T20:49:06.516Z,79.20
2019-03-11T20:51:39.453Z,79.18
2019-03-11T20:54:12.378Z,79.14
2019-03-11T20:56:45.527Z,79.03
2019-03-11T20:59:18.435Z,79.01
2019-03-11T21:01:51.495Z,79.00
2019-03-11T21:04:24.602Z,79.00
2019-03-11T21:06:58.482Z,78.88
2019-03-11T21:09:31.472Z,78.64
2019-03-11T21:12:04.535Z,78.66
2019-03-11T21:14:37.648Z,78.98
2019-03-11T21:17:10.671Z,78.80
2019-03-11T21:19:43.639Z,78.67
2019-03-11T21:22:16.613Z,78.69
2019-03-11T21:24:59.481Z,78.75
2019-03-11T21:27:28.782Z,78.74
2019-03-11T21:30:01.821Z,78.65
2019-03-11T21:32:36.330Z,78.51
2019-03-11T21:35:09.509Z,78.56
2019-03-11T21:37:42.583Z,78.65
2019-03-11T21:40:17.543Z,78.78
2019-03-11T21:42:50.707Z,78.75
2019-03-11T21:45:33.520Z,78.72
2019-03-11T21:47:58.172Z,78.80
2019-03-11T21:50:31.106Z,78.93
2019-03-11T21:53:04.154Z,78.86
2019-03-11T21:55:37.234Z,78.79
2019-03-11T21:58:13.433Z,78.87
2019-03-11T22:00:44.751Z,78.98
2019-03-11T22:03:17.640Z,78.96
2019-03-11T22:05:50.473Z,78.57
2019-03-11T22:08:23.958Z,78.11
2019-03-11T22:10:56.860Z,77.95
2019-03-11T22:13:29.676Z,77.68
2019-03-11T22:16:02.639Z,77.73
2019-03-11T22:18:35.396Z,77.57
2019-03-11T22:21:08.146Z,77.32
2019-03-11T22:23:42.258Z,77.51
2019-03-11T22:26:15.397Z,77.53
2019-03-11T22:28:48.273Z,77.70
2019-03-11T22:31:21.158Z,77.76
2019-03-11T22:33:53.982Z,78.10
2019-03-11T22:36:28.614Z,78.35
2019-03-11T22:39:01.432Z,78.54
2019-03-11T22:41:35.854Z,78.80
2019-03-11T22:44:08.653Z,79.06
2019-03-11T22:46:41.518Z,79.06
2019-03-11T22:49:14.253Z,79.11
2019-03-11T22:51:47.061Z,79.12
2019-03-11T22:54:19.923Z,79.14
2019-03-11T22:56:52.878Z,79.26
2019-03-11T22:59:25.662Z,77.06
2019-03-11T23:01:58.585Z,77.27
2019-03-11T23:04:31.348Z,77.30
2019-03-11T23:07:04.083Z,77.70
2019-03-11T23:09:36.918Z,77.97
2019-03-11T23:12:09.849Z,78.22
2019-03-11T23:14:42.633Z,78.45
2019-03-11T23:17:15.397Z,78.50
2019-03-11T23:19:48.140Z,77.89
2019-03-11T23:22:21.067Z,77.79
2019-03-11T23:24:53.828Z,77.46
2019-03-11T23:27:26.810Z,76.85
2019-03-11T23:29:59.746Z,76.81
2019-03-11T23:32:32.630Z,76.89
2019-03-11T23:35:05.606Z,77.00
2019-03-11T23:37:38.301Z,76.80
2019-03-11T23:40:12.304Z,76.89
2019-03-11T23:42:45.159Z,77.17
2019-03-11T23:45:18.032Z,77.48
2019-03-11T23:47:50.815Z,77.40
2019-03-11T23:50:23.600Z,77.44
2019-03-11T23:52:56.481Z,77.52
2019-03-11T23:55:29.302Z,77.62
2019-03-11T23:58:02.215Z,77.73
